SBSCSBRJ

Guest
Details From SBSC - SANTA CRUZ
To SBRJ - Santos-Dumont
Flight Number -
Tags generated
Created
Modified
Stats Distance 32 nm / 60 km
Max Altitude 400 ft / 122 m
Waypoints 3
Social Downloads 1
Likes 0
Share VATSIM

Download

Looking for another format? Having issues loading an existing format? Contact us
Advertisement - Login to hide

Notes

Basic altitude profile: - Ascent Rate: 2500ft/min - Ascent Speed: 250kts - Cruise Altitude: 5000ft - Cruise Speed: 250kts - Descent Rate: 1500ft/min - Descent Speed: 250kts Options: - Use NATs: yes - Use PACOTS: no - Use low airways: yes - Use high airways: no

Route

SBSC SCR SBRJ

ID Type Via Altitude Latitude Longitude Leg Dist Tot Dist Heading (true) Name
O SBSC APT - 0 ft / 0 m -22.93249˚ -43.71909˚ - 0 nm - SANTA CRUZ
SCR VOR - 400 ft / 122 m -22.94963˚ -43.72768˚ 1 nm 1 nm 205° / 205° -
O SBRJ APT - 0 ft / 0 m -22.91046˚ -43.16313˚ 31 nm 32 nm 86° / 86° Santos-Dumont

Altitude Profile

Advertisement - Login to hide

SBSC

Details ICAO SBSC (STU)
Name SANTA CRUZ
Region Brazil
Timezone America/Sao_Paulo (UTC-2.0)
Stats Elevation 10 ft / 3 m (AMSL)
Location -22.932489° -43.719090°
Runways 1
Magnetic Variation 22.586° W

METAR

SBSC 140200Z 16002KT 9999 FEW040 23/18 Q1019

Decode

TAF

TAF SBSC 132100Z 1400/1412 08005KT 9999 SCT025TN21/1408Z TX27/1412Z BECMG 1403/1405 03007KT CAVOK RMK PGU

Decode

Departure Runways

ID Width Length Bearing (true) Bearing (mag) Surface Threshold Offset Overrun Length
05 148 ft / 45 m 9,039 ft / 2,755 m 24.13° 46.72° Asphalt 0 ft / 0 m 1,145 ft / 349 m
23 148 ft / 45 m 9,039 ft / 2,755 m 204.12° 226.71° Asphalt 0 ft / 0 m 1,145 ft / 349 m

SBRJ

Details ICAO SBRJ (SDU)
Name Santos-Dumont
Region Brazil
Timezone Unknown (UTC+0.0)
Stats Elevation 11 ft / 3 m (AMSL)
Location -22.910460° -43.163133°
Runways 2
Magnetic Variation 22.782° W

METAR

SBRJ 140200Z 10003KT 9999 FEW020 SCT040 23/18 Q1019

Decode

TAF

TAF SBRJ 132100Z 1400/1412 17015KT 9999 SCT025TN22/1408Z TX27/1412Z BECMG 1402/1404 05005KT CAVOK RMK PGU

Decode

Destination Runways

ID Width Length Bearing (true) Bearing (mag) Surface Threshold Offset Overrun Length
02L 98 ft / 30 m 4,154 ft / 1,266 m 358.02° 20.80° Asphalt 0 ft / 0 m 80 ft / 24 m
02R 138 ft / 42 m 4,361 ft / 1,329 m 358.01° 20.79° Asphalt 0 ft / 0 m 80 ft / 24 m
20L 138 ft / 42 m 4,361 ft / 1,329 m 178.01° 200.79° Asphalt 0 ft / 0 m 80 ft / 24 m
20R 98 ft / 30 m 4,154 ft / 1,266 m 178.02° 200.80° Asphalt 0 ft / 0 m 95 ft / 29 m

Approach Navaids

Runway Type Ident Frequency Range Bearing (true) Bearing (mag) Slope Elevation
20L Localiser IRJ 111.10 MHz 18 nm / 33 km 172.42° 195.20° - 11 ft / 3 m (AMSL)

Popular Alternatives